createdAt,value
2022-12-01T00:01:52.677Z,8.89
2022-12-01T00:04:54.547Z,7.98
2022-12-01T00:07:57.782Z,7.55
2022-12-01T00:11:03.463Z,8.29
2022-12-01T00:14:05.592Z,9.23
2022-12-01T00:17:07.422Z,9.00
2022-12-01T00:20:09.475Z,7.76
2022-12-01T00:23:13.683Z,7.39
2022-12-01T00:26:16.077Z,7.33
2022-12-01T00:29:17.982Z,7.17
2022-12-01T00:32:19.857Z,8.07
2022-12-01T00:35:21.875Z,7.44
2022-12-01T00:38:23.746Z,7.24
2022-12-01T00:41:25.799Z,7.31
2022-12-01T00:44:27.642Z,6.95
2022-12-01T00:47:29.489Z,7.45
2022-12-01T00:50:31.352Z,7.06
2022-12-01T00:53:33.181Z,6.56
2022-12-01T00:56:35.069Z,7.01
2022-12-01T00:59:36.996Z,6.56
2022-12-01T01:02:42.719Z,6.93
2022-12-01T01:05:44.674Z,6.73
2022-12-01T01:08:46.494Z,6.39
2022-12-01T01:11:48.449Z,7.38
2022-12-01T01:14:50.285Z,7.06
2022-12-01T01:17:54.427Z,6.12
2022-12-01T01:20:59.636Z,6.39
2022-12-01T01:24:01.717Z,7.64
2022-12-01T01:27:03.722Z,7.99
2022-12-01T01:30:06.030Z,7.69
2022-12-01T01:33:07.971Z,7.93
2022-12-01T01:36:10.108Z,7.67
2022-12-01T01:39:11.923Z,7.80
2022-12-01T01:42:14.272Z,7.47
2022-12-01T01:45:23.796Z,7.10
2022-12-01T01:48:25.640Z,7.12
2022-12-01T01:51:47.706Z,7.25
2022-12-01T01:54:50.112Z,5.84
2022-12-01T01:57:51.963Z,5.80
2022-12-01T02:00:53.863Z,6.19
2022-12-01T02:03:55.788Z,6.26
2022-12-01T02:06:57.599Z,6.22
2022-12-01T02:09:59.469Z,6.44
2022-12-01T02:13:04.399Z,6.38
2022-12-01T02:16:12.065Z,6.16
2022-12-01T02:19:24.785Z,5.87
2022-12-01T02:22:32.682Z,5.80
2022-12-01T02:25:37.241Z,5.83
2022-12-01T02:28:57.502Z,6.00
2022-12-01T02:31:59.260Z,5.91
2022-12-01T02:35:04.705Z,6.04
2022-12-01T02:38:06.522Z,6.34
2022-12-01T02:41:12.681Z,6.17
2022-12-01T02:44:23.692Z,6.79
2022-12-01T02:47:25.578Z,6.50
2022-12-01T02:50:27.528Z,7.03
2022-12-01T02:53:29.395Z,6.04
2022-12-01T02:56:31.389Z,5.03
2022-12-01T02:59:33.284Z,5.95
2022-12-01T03:02:50.555Z,6.45
2022-12-01T03:05:53.973Z,5.77
2022-12-01T03:08:59.314Z,5.25
2022-12-01T03:12:01.112Z,6.04
2022-12-01T03:15:09.415Z,6.10
2022-12-01T03:18:18.581Z,6.86
2022-12-01T03:21:20.532Z,5.43
2022-12-01T03:24:22.847Z,5.49
2022-12-01T03:27:25.959Z,6.09
2022-12-01T03:30:27.963Z,6.37
2022-12-01T03:33:36.872Z,5.29
2022-12-01T03:36:43.184Z,5.37
2022-12-01T03:39:45.270Z,5.93
2022-12-01T03:42:53.051Z,5.47
2022-12-01T03:46:03.749Z,5.18
2022-12-01T03:49:06.037Z,5.35
2022-12-01T03:52:16.344Z,5.78
2022-12-01T03:55:18.152Z,5.93
2022-12-01T03:58:21.326Z,6.11
2022-12-01T04:01:23.399Z,6.62
2022-12-01T04:04:25.262Z,5.67
2022-12-01T04:07:27.159Z,5.59
2022-12-01T04:10:29.125Z,5.61
2022-12-01T04:13:31.105Z,6.30
2022-12-01T04:16:33.032Z,6.42
2022-12-01T04:19:34.946Z,6.23
2022-12-01T04:22:36.818Z,5.48
2022-12-01T04:25:38.664Z,4.82
2022-12-01T04:28:40.507Z,4.59
2022-12-01T04:31:42.559Z,4.69
2022-12-01T04:34:44.880Z,4.77
2022-12-01T04:37:46.764Z,5.72
2022-12-01T04:40:48.620Z,6.03
2022-12-01T04:43:52.288Z,6.30
2022-12-01T04:46:54.206Z,6.07
2022-12-01T04:49:56.108Z,5.54
2022-12-01T04:52:57.947Z,4.58
2022-12-01T04:56:00.503Z,5.49
2022-12-01T04:59:02.352Z,5.28
2022-12-01T05:02:04.495Z,4.77
2022-12-01T05:05:06.889Z,4.86
2022-12-01T05:08:08.809Z,5.21
2022-12-01T05:11:12.176Z,5.66
2022-12-01T05:14:14.036Z,6.09
2022-12-01T05:17:15.891Z,5.95
2022-12-01T05:20:40.677Z,5.98
2022-12-01T05:23:42.680Z,5.44
2022-12-01T05:26:44.555Z,5.01
2022-12-01T05:29:46.635Z,4.96
2022-12-01T05:32:48.657Z,5.45
2022-12-01T05:35:50.780Z,5.83
2022-12-01T05:38:52.729Z,5.87
2022-12-01T05:41:54.612Z,5.53
2022-12-01T05:44:56.967Z,5.18
2022-12-01T05:47:59.845Z,4.58
2022-12-01T05:51:07.558Z,4.80
2022-12-01T05:54:09.360Z,5.04
2022-12-01T05:57:11.212Z,5.11
2022-12-01T06:00:13.366Z,4.42
2022-12-01T06:03:15.333Z,4.03
2022-12-01T06:06:17.534Z,4.03
2022-12-01T06:09:19.368Z,4.48
2022-12-01T06:12:21.257Z,4.62
2022-12-01T06:15:23.106Z,4.96
2022-12-01T06:18:26.047Z,4.56
2022-12-01T06:21:27.860Z,4.80
2022-12-01T06:24:29.683Z,4.08
2022-12-01T06:27:31.533Z,4.29
2022-12-01T06:30:33.379Z,5.08
2022-12-01T06:33:35.277Z,5.41
2022-12-01T06:36:39.383Z,5.47
2022-12-01T06:39:46.909Z,5.69
2022-12-01T06:42:51.175Z,5.36
2022-12-01T06:46:01.678Z,4.97
2022-12-01T06:49:09.299Z,5.21
2022-12-01T06:52:11.856Z,5.53
2022-12-01T06:55:15.687Z,5.24
2022-12-01T06:58:31.798Z,4.50
2022-12-01T07:01:59.026Z,4.49
2022-12-01T07:05:05.373Z,3.93
2022-12-01T07:08:13.506Z,4.13
2022-12-01T07:11:26.839Z,4.92
2022-12-01T07:14:31.606Z,3.96
2022-12-01T07:17:37.645Z,4.38
2022-12-01T07:20:43.691Z,4.52
2022-12-01T07:23:48.098Z,5.21
2022-12-01T07:26:56.538Z,5.80
2022-12-01T07:30:00.065Z,4.81
2022-12-01T07:33:04.867Z,4.91
2022-12-01T07:36:31.158Z,5.10
2022-12-01T07:39:40.412Z,5.76
2022-12-01T07:42:45.150Z,5.78
2022-12-01T07:45:50.438Z,5.29
2022-12-01T07:52:10.814Z,5.22
2022-12-01T07:56:19.772Z,5.05
2022-12-01T07:58:54.718Z,5.07
2022-12-01T08:02:01.370Z,6.08
2022-12-01T08:05:05.491Z,6.08
2022-12-01T08:08:19.606Z,5.53
2022-12-01T08:11:24.998Z,5.52
2022-12-01T08:14:31.593Z,5.93
2022-12-01T08:17:36.063Z,5.65
2022-12-01T08:20:55.417Z,6.51
2022-12-01T08:24:00.227Z,6.00
2022-12-01T08:27:06.897Z,5.79
2022-12-01T08:30:10.857Z,6.44
2022-12-01T08:33:18.501Z,6.33
2022-12-01T08:36:27.177Z,5.32
2022-12-01T08:39:30.022Z,6.13
2022-12-01T08:42:36.997Z,6.41
2022-12-01T08:45:41.228Z,6.24
2022-12-01T08:48:51.083Z,7.00
2022-12-01T08:51:56.836Z,6.81
2022-12-01T08:55:05.815Z,6.73
2022-12-01T08:58:10.716Z,6.45
2022-12-01T09:01:18.816Z,7.77
2022-12-01T09:04:22.324Z,6.99
2022-12-01T09:07:26.899Z,7.26
2022-12-01T09:10:31.873Z,8.09
2022-12-01T09:13:35.889Z,7.63
2022-12-01T09:16:41.842Z,7.25
2022-12-01T09:19:44.519Z,8.01
2022-12-01T09:22:46.606Z,7.77
2022-12-01T09:25:53.404Z,7.66
2022-12-01T09:28:59.992Z,6.97
2022-12-01T09:32:05.323Z,7.38
2022-12-01T09:35:18.595Z,7.01
2022-12-01T09:38:29.744Z,8.31
2022-12-01T09:41:43.309Z,8.50
2022-12-01T09:44:55.145Z,7.89
2022-12-01T09:48:01.941Z,8.41
2022-12-01T09:51:11.318Z,9.13
2022-12-01T09:54:19.682Z,8.44
2022-12-01T09:57:31.167Z,8.42
2022-12-01T10:00:36.897Z,8.30
2022-12-01T10:03:54.896Z,8.55
2022-12-01T10:07:12.304Z,8.01
2022-12-01T10:10:23.426Z,8.41
2022-12-01T10:13:34.191Z,9.68
2022-12-01T10:16:48.760Z,9.53
2022-12-01T10:20:09.198Z,9.65
2022-12-01T10:23:38.882Z,8.71
2022-12-01T10:27:11.914Z,9.42
2022-12-01T10:30:24.452Z,9.94
2022-12-01T10:33:44.325Z,8.86
2022-12-01T10:36:48.041Z,9.28
2022-12-01T10:40:06.785Z,8.67
2022-12-01T10:43:16.331Z,9.81
2022-12-01T10:46:23.015Z,10.11
2022-12-01T10:53:08.840Z,8.19
2022-12-01T10:56:13.359Z,9.32
2022-12-01T10:59:31.638Z,9.88
2022-12-01T11:06:40.586Z,10.35
2022-12-01T11:09:47.993Z,10.79
2022-12-01T11:13:01.941Z,8.92
2022-12-01T11:16:24.565Z,10.94
2022-12-01T11:20:02.892Z,10.63
2022-12-01T11:23:25.164Z,11.14
2022-12-01T11:26:28.335Z,11.81
2022-12-01T11:29:32.277Z,11.25
2022-12-01T11:32:36.098Z,10.95
2022-12-01T11:35:42.521Z,10.40
2022-12-01T11:38:44.415Z,10.85
2022-12-01T11:41:46.268Z,11.61
2022-12-01T11:48:15.445Z,11.76
2022-12-01T11:51:19.994Z,10.83
2022-12-01T11:54:23.173Z,11.63
2022-12-01T11:57:34.166Z,13.14
2022-12-01T12:00:44.155Z,12.89
2022-12-01T12:04:04.630Z,15.87
2022-12-01T12:07:18.613Z,15.78
2022-12-01T12:10:20.608Z,14.97
2022-12-01T12:13:31.970Z,15.13
2022-12-01T12:16:33.962Z,13.46
2022-12-01T12:20:06.291Z,12.54
2022-12-01T12:23:06.216Z,13.42
2022-12-01T12:26:19.448Z,12.69
2022-12-01T12:29:29.503Z,11.61
2022-12-01T12:32:37.345Z,12.09
2022-12-01T12:35:42.593Z,10.75
2022-12-01T12:38:53.692Z,13.14
2022-12-01T12:41:56.126Z,13.36
2022-12-01T12:45:02.749Z,12.82
2022-12-01T12:48:11.268Z,13.92
2022-12-01T12:51:20.809Z,12.93
2022-12-01T12:54:33.886Z,15.04
2022-12-01T12:57:37.406Z,14.92
2022-12-01T13:00:40.880Z,13.14
2022-12-01T13:03:45.828Z,11.91
2022-12-01T13:07:14.217Z,10.75
2022-12-01T13:10:28.295Z,11.05
2022-12-01T13:13:32.456Z,10.98
2022-12-01T13:16:35.836Z,11.59
2022-12-01T13:19:37.839Z,10.82
2022-12-01T13:22:39.927Z,9.55
2022-12-01T13:25:44.278Z,9.51
2022-12-01T13:28:50.525Z,10.72
2022-12-01T13:31:55.004Z,9.85
2022-12-01T13:34:57.145Z,10.98
2022-12-01T13:38:19.143Z,10.05
2022-12-01T13:41:24.291Z,9.06
2022-12-01T13:44:27.615Z,9.39
2022-12-01T13:47:33.145Z,10.94
2022-12-01T13:50:44.639Z,10.85
2022-12-01T13:54:01.615Z,11.34
2022-12-01T13:57:04.636Z,11.44
2022-12-01T14:00:25.677Z,10.61
2022-12-01T14:03:38.443Z,10.65
2022-12-01T14:06:50.572Z,11.55
2022-12-01T14:09:53.482Z,11.77
2022-12-01T14:12:56.324Z,11.80
2022-12-01T14:15:59.305Z,11.92
2022-12-01T14:19:01.338Z,10.77
2022-12-01T14:22:04.527Z,11.47
2022-12-01T14:25:21.183Z,10.36
2022-12-01T14:28:43.076Z,11.16
2022-12-01T14:31:46.694Z,10.44
2022-12-01T14:34:52.329Z,10.04
2022-12-01T14:37:54.430Z,10.08
2022-12-01T14:40:56.746Z,10.46
2022-12-01T14:44:07.853Z,9.98
2022-12-01T14:47:13.733Z,10.81
2022-12-01T14:50:17.523Z,10.36
2022-12-01T14:53:30.187Z,10.05
2022-12-01T14:56:32.874Z,10.30
2022-12-01T14:59:34.882Z,10.77
2022-12-01T15:02:43.692Z,10.49
2022-12-01T15:05:45.722Z,10.76
2022-12-01T15:09:10.571Z,10.33
2022-12-01T15:12:19.496Z,10.73
2022-12-01T15:15:24.328Z,10.57
2022-12-01T15:18:30.219Z,10.50
2022-12-01T15:21:32.553Z,10.47
2022-12-01T15:24:34.518Z,10.37
2022-12-01T15:27:36.667Z,10.37
2022-12-01T15:30:39.537Z,10.38
2022-12-01T15:33:46.787Z,10.41
2022-12-01T15:36:48.700Z,10.29
2022-12-01T15:39:52.868Z,9.78
2022-12-01T15:43:03.478Z,10.14
2022-12-01T15:46:17.714Z,10.16
2022-12-01T15:49:30.057Z,9.16
2022-12-01T15:52:32.424Z,9.92
2022-12-01T15:55:35.637Z,9.90
2022-12-01T15:58:41.904Z,9.89
2022-12-01T16:01:43.983Z,9.52
2022-12-01T16:04:46.357Z,8.54
2022-12-01T16:08:12.725Z,8.02
2022-12-01T16:11:10.034Z,9.04
2022-12-01T16:14:22.507Z,8.45
2022-12-01T16:17:24.423Z,8.20
2022-12-01T16:20:26.251Z,9.22
2022-12-01T16:23:28.392Z,9.78
2022-12-01T16:26:30.264Z,9.89
2022-12-01T16:29:36.624Z,9.58
2022-12-01T16:32:39.648Z,9.73
2022-12-01T16:35:41.559Z,9.78
2022-12-01T16:38:43.390Z,9.84
2022-12-01T16:41:46.713Z,10.08
2022-12-01T16:44:49.522Z,9.77
2022-12-01T16:47:51.747Z,9.75
2022-12-01T16:50:53.801Z,9.61
2022-12-01T16:53:55.735Z,10.02
2022-12-01T16:56:57.565Z,10.17
2022-12-01T16:59:59.455Z,9.86
2022-12-01T17:03:01.520Z,9.95
2022-12-01T17:06:03.921Z,9.78
2022-12-01T17:09:06.041Z,9.96
2022-12-01T17:12:08.000Z,9.59
2022-12-01T17:15:10.454Z,9.86
2022-12-01T17:18:12.669Z,9.48
2022-12-01T17:21:14.646Z,9.93
2022-12-01T17:24:19.212Z,10.18
2022-12-01T17:27:24.339Z,9.97
2022-12-01T17:30:26.275Z,9.37
2022-12-01T17:33:28.197Z,8.94
2022-12-01T17:36:30.305Z,8.65
2022-12-01T17:39:32.175Z,9.04
2022-12-01T17:42:34.053Z,9.26
2022-12-01T17:45:35.874Z,9.11
2022-12-01T17:48:43.854Z,9.18
2022-12-01T17:51:45.786Z,8.48
2022-12-01T17:54:47.969Z,9.20
2022-12-01T17:57:50.105Z,8.65
2022-12-01T18:00:53.803Z,8.94
2022-12-01T18:03:56.711Z,8.91
2022-12-01T18:06:58.700Z,8.45
2022-12-01T18:10:00.650Z,8.65
2022-12-01T18:13:02.944Z,8.87
2022-12-01T18:16:08.717Z,8.35
2022-12-01T18:19:10.563Z,8.69
2022-12-01T18:22:12.466Z,9.10
2022-12-01T18:25:14.537Z,9.25
2022-12-01T18:28:16.331Z,8.59
2022-12-01T18:31:18.355Z,8.42
2022-12-01T18:34:20.346Z,7.79
2022-12-01T18:37:22.228Z,8.09
2022-12-01T18:40:24.336Z,7.98
2022-12-01T18:43:26.603Z,7.67
2022-12-01T18:46:29.060Z,7.94
2022-12-01T18:49:30.967Z,8.02
2022-12-01T18:52:34.886Z,8.43
2022-12-01T18:55:36.990Z,8.41
2022-12-01T18:58:42.144Z,7.94
2022-12-01T19:01:44.791Z,7.75
2022-12-01T19:04:50.070Z,8.00
2022-12-01T19:07:55.124Z,7.88
2022-12-01T19:11:00.622Z,8.00
2022-12-01T19:14:03.614Z,7.93
2022-12-01T19:17:05.624Z,8.26
2022-12-01T19:20:07.799Z,7.65
2022-12-01T19:23:09.622Z,8.30
2022-12-01T19:26:12.265Z,7.52
2022-12-01T19:29:14.159Z,7.73
2022-12-01T19:32:15.985Z,7.94
2022-12-01T19:35:17.849Z,7.40
2022-12-01T19:38:19.688Z,7.91
2022-12-01T19:41:24.163Z,8.39
2022-12-01T19:44:25.972Z,8.04
2022-12-01T19:47:30.597Z,7.69
2022-12-01T19:50:35.738Z,8.52
2022-12-01T19:53:37.722Z,7.85
2022-12-01T19:56:39.515Z,7.64
2022-12-01T19:59:41.423Z,7.98
2022-12-01T20:02:43.305Z,8.38
2022-12-01T20:05:45.149Z,7.57
2022-12-01T20:08:47.239Z,7.44
2022-12-01T20:11:49.035Z,7.83
2022-12-01T20:14:51.087Z,8.05
2022-12-01T20:17:53.997Z,7.99
2022-12-01T20:21:05.085Z,7.32
2022-12-01T20:24:07.423Z,7.34
2022-12-01T20:27:09.812Z,7.77
2022-12-01T20:30:12.081Z,7.50
2022-12-01T20:33:13.925Z,7.64
2022-12-01T20:36:15.791Z,6.87
2022-12-01T20:39:17.755Z,6.98
2022-12-01T20:42:22.277Z,6.71
2022-12-01T20:45:24.099Z,7.26
2022-12-01T20:48:26.165Z,7.88
2022-12-01T20:51:27.979Z,7.65
2022-12-01T20:54:30.959Z,7.72
2022-12-01T20:57:33.013Z,7.46
2022-12-01T21:00:35.636Z,7.70
2022-12-01T21:03:38.269Z,7.15
2022-12-01T21:06:40.089Z,6.99
2022-12-01T21:09:41.933Z,6.87
2022-12-01T21:13:02.801Z,6.84
2022-12-01T21:16:12.365Z,6.91
2022-12-01T21:19:22.950Z,6.94
2022-12-01T21:22:24.828Z,6.64
2022-12-01T21:25:26.664Z,6.48
2022-12-01T21:28:29.870Z,6.28
2022-12-01T21:31:31.710Z,6.40
2022-12-01T21:34:33.784Z,6.24
2022-12-01T21:37:35.632Z,6.24
2022-12-01T21:40:37.471Z,6.14
2022-12-01T21:43:39.319Z,6.19
2022-12-01T21:46:42.345Z,5.78
2022-12-01T21:49:46.844Z,4.86
2022-12-01T21:52:48.873Z,5.95
2022-12-01T21:55:50.752Z,5.96
2022-12-01T21:58:52.978Z,5.69
2022-12-01T22:01:55.844Z,5.65
2022-12-01T22:04:58.473Z,5.82
2022-12-01T22:08:12.268Z,5.43
2022-12-01T22:11:18.783Z,5.66
2022-12-01T22:14:20.591Z,5.78
2022-12-01T22:17:22.517Z,5.90
2022-12-01T22:20:24.332Z,5.48
2022-12-01T22:23:33.017Z,5.42
2022-12-01T22:26:38.620Z,5.54
2022-12-01T22:29:42.223Z,5.60
2022-12-01T22:32:46.123Z,5.47
2022-12-01T22:35:49.168Z,5.46
2022-12-01T22:38:50.945Z,5.00
2022-12-01T22:41:54.764Z,5.42
2022-12-01T22:45:00.074Z,5.77
2022-12-01T22:48:01.928Z,5.67
2022-12-01T22:51:24.104Z,5.79
2022-12-01T22:54:27.083Z,5.96
2022-12-01T22:57:31.203Z,5.81
2022-12-01T23:00:33.064Z,5.95
2022-12-01T23:03:34.938Z,6.34
2022-12-01T23:06:42.552Z,6.15
2022-12-01T23:09:44.431Z,5.38
2022-12-01T23:12:47.192Z,5.81
2022-12-01T23:15:53.663Z,5.60
2022-12-01T23:18:55.662Z,6.05
2022-12-01T23:21:57.489Z,6.00
2022-12-01T23:24:59.847Z,6.65
2022-12-01T23:28:03.826Z,6.26
2022-12-01T23:31:05.770Z,6.25
2022-12-01T23:34:12.356Z,6.51
2022-12-01T23:37:40.409Z,6.73
2022-12-01T23:40:42.231Z,6.07
2022-12-01T23:43:46.710Z,6.37
2022-12-01T23:46:53.198Z,6.48
2022-12-01T23:49:57.771Z,7.13
2022-12-01T23:52:59.600Z,6.01
2022-12-01T23:56:03.517Z,5.09
2022-12-01T23:59:06.025Z,5.21
